Kailua, HI

11:18 PM HST on August 20, 2014 (GMT -1000)
Honolulu International | Change Station
CLOSE
Current Station
Airport
Location: Honolulu,
Elevation: 16 ft
Nearby Weather Stations

Elev 16 ft 21.32 °N, 157.92 °W | Updated 25 minutes ago

Mostly Cloudy
Mostly Cloudy
80 °F
Feels Like 83 °F
N
8
Wind Variable Wind from NE

Today
High -- | Low -- °F
--% Chance of Precip.
Yesterday
High -- | Low -- °F
Precip. -- in
6:11 AM 6:57 PM
Waning Crescent, 15% visible
Pressure 30.01 in
Visibility 10.0 miles
Clouds Few 2400 ft
Scattered Clouds 5000 ft
Mostly Cloudy 6500 ft
Heat Index 83 °F
Dew Point 68 °F
Humidity 67%
Rainfall 0.00 in
Snow Depth Not available.
UV 0 out of 12
Pollen Not available.
Air Quality Not available.
Flu Activity Not available.
METAR PHNL 210853Z 05007KT 10SM FEW024 SCT050 BKN065 27/20 A3000 RMK AO2 SLP160 T02670200 50012

More Conditions Fewer Conditions

Pressure 30.01 in
Visibility 10.0 miles
Clouds Few 2400 ft
Scattered Clouds 5000 ft
Mostly Cloudy 6500 ft
Heat Index 83 °F
Dew Point 68 °F
Humidity 67%
Rainfall 0.00 in
Snow Depth Not available.
UV 0 out of 12
Pollen Not available.
Air Quality Not available.
Flu Activity Not available.
METAR PHNL 210853Z 05007KT 10SM FEW024 SCT050 BKN065 27/20 A3000 RMK AO2 SLP160 T02670200 50012

More Conditions Fewer Conditions

10-Day Weather Forecast

Almanac

Astronomy

Aug. 20, 2014 Rise Set
Actual Time 6:11 AM HST 6:57 PM HST
Civil Twilight 5:48 AM HST 7:20 PM HST
Nautical Twilight 5:21 AM HST 7:47 PM HST
Astronomical Twilight 4:53 AM HST 8:14 PM HST
Moon 2:13 AM HST (8/20) 3:38 PM HST (8/20)
Length of Visible Light 13h 32m
Length of Day
12h 46m
Tomorrow will be 1m 7s shorter.
Waning Crescent, 15% of the Moon is Illuminated
Aug 21
Waning Crescent
Aug 25
New
Sep 2
First Quarter
Sep 8
Full
Sep 15
Last Quarter

Yesterday's Extremes

State Highs State Lows

Community

WunderPhotos

Upload Photos

1,745,864 photos uploaded!

Nearby

Snow Depth

Station Depth Elevation
No new snow has been reported.

Earthquake Activity

City Distance Mag. Time & Date
No recent earthquake activity has been reported nearby.
Minimum magnitude displayed is 2.5.

Coastal Water Temperatures

Place Temperature
No Stations Reporting

Nearby Weather Stations